Jacquet River, Canada
Current Conditions -  °F | °C
As of 5:00 AM on Tuesday 21 Oct 2014 (Local Time) from CZBF Reporting Station
Clear Clear  
Wind Chill:   Ceiling: Unl
Heat Index:   Visibility: 15mi
Dew Point: -4°   Wind: 3mph
Humidity: 75%   Direction: 240°WSW
Pressure: 29.95"   Gusts: NA
Location:  47.92°N, 66°W
Report Text: CZBF 210800Z 24003KT 15SM SKC 00/M04 A2995 RMK SLP145
Loading
Personal Weather Stations






























Interactive Weather Map
Tropical Storm Tracking
New forecast layout! Learn more

10-Day Weather Forecast

Advertisements
Track Severe Weather on mobile